sensor_id;sensor_type;location;lat;lon;timestamp;pressure;altitude;pressure_sealevel;temperature;humidity
49311;BME280;35177;45.900;5.946;2023-02-22T00:00:20;97570.44;;;0.70;100.00
49311;BME280;35177;45.900;5.946;2023-02-22T00:03:04;97570.78;;;0.56;100.00
49311;BME280;35177;45.900;5.946;2023-02-22T00:05:32;97568.03;;;0.73;100.00
49311;BME280;35177;45.900;5.946;2023-02-22T00:07:57;97571.84;;;0.72;100.00
49311;BME280;35177;45.900;5.946;2023-02-22T00:10:25;97567.91;;;0.63;100.00
49311;BME280;35177;45.900;5.946;2023-02-22T00:12:52;97572.31;;;0.47;100.00
49311;BME280;35177;45.900;5.946;2023-02-22T00:15:21;97570.88;;;0.61;100.00
49311;BME280;35177;45.900;5.946;2023-02-22T00:17:47;97567.22;;;0.73;100.00
49311;BME280;35177;45.900;5.946;2023-02-22T00:20:14;97568.69;;;0.80;100.00
49311;BME280;35177;45.900;5.946;2023-02-22T00:22:46;97575.59;;;0.49;100.00
49311;BME280;35177;45.900;5.946;2023-02-22T00:25:14;97567.88;;;0.41;100.00
49311;BME280;35177;45.900;5.946;2023-02-22T00:27:41;97565.84;;;0.53;100.00
49311;BME280;35177;45.900;5.946;2023-02-22T00:30:08;97570.41;;;0.47;100.00
49311;BME280;35177;45.900;5.946;2023-02-22T00:32:37;97569.31;;;0.66;100.00
49311;BME280;35177;45.900;5.946;2023-02-22T00:35:03;97569.34;;;0.48;100.00
49311;BME280;35177;45.900;5.946;2023-02-22T00:37:32;97563.88;;;0.48;100.00
49311;BME280;35177;45.900;5.946;2023-02-22T00:39:59;97570.44;;;0.70;100.00
49311;BME280;35177;45.900;5.946;2023-02-22T00:42:25;97560.00;;;0.84;100.00
49311;BME280;35177;45.900;5.946;2023-02-22T00:44:50;97567.22;;;0.73;100.00
49311;BME280;35177;45.900;5.946;2023-02-22T00:47:16;97564.31;;;0.62;100.00
49311;BME280;35177;45.900;5.946;2023-02-22T00:49:41;97567.69;;;0.30;100.00
49311;BME280;35177;45.900;5.946;2023-02-22T00:52:07;97566.06;;;-0.05;100.00
49311;BME280;35177;45.900;5.946;2023-02-22T00:54:33;97566.94;;;-0.16;100.00
49311;BME280;35177;45.900;5.946;2023-02-22T00:56:59;97567.53;;;-0.14;100.00
49311;BME280;35177;45.900;5.946;2023-02-22T00:59:25;97562.16;;;-0.09;100.00
49311;BME280;35177;45.900;5.946;2023-02-22T01:01:51;97568.28;;;0.32;100.00
49311;BME280;35177;45.900;5.946;2023-02-22T01:04:17;97564.34;;;0.45;100.00
49311;BME280;35177;45.900;5.946;2023-02-22T01:06:42;97560.84;;;0.11;100.00
49311;BME280;35177;45.900;5.946;2023-02-22T01:09:08;97571.75;;;-0.06;100.00
49311;BME280;35177;45.900;5.946;2023-02-22T01:11:33;97568.19;;;-0.24;100.00
49311;BME280;35177;45.900;5.946;2023-02-22T01:13:59;97574.91;;;-0.14;100.00
49311;BME280;35177;45.900;5.946;2023-02-22T01:16:25;97569.94;;;-0.18;100.00
49311;BME280;35177;45.900;5.946;2023-02-22T01:18:50;97569.19;;;-0.13;100.00
49311;BME280;35177;45.900;5.946;2023-02-22T01:21:16;97568.03;;;-0.17;100.00
49311;BME280;35177;45.900;5.946;2023-02-22T01:23:45;97572.41;;;-0.16;100.00
49311;BME280;35177;45.900;5.946;2023-02-22T01:26:11;97572.41;;;-0.16;100.00
49311;BME280;35177;45.900;5.946;2023-02-22T01:28:37;97573.91;;;-0.25;100.00
49311;BME280;35177;45.900;5.946;2023-02-22T01:31:03;97573.38;;;-0.22;100.00
49311;BME280;35177;45.900;5.946;2023-02-22T01:33:30;97564.56;;;-0.29;100.00
49311;BME280;35177;45.900;5.946;2023-02-22T01:35:56;97565.47;;;-0.07;100.00
49311;BME280;35177;45.900;5.946;2023-02-22T01:38:22;97571.00;;;-0.19;100.00
49311;BME280;35177;45.900;5.946;2023-02-22T01:40:49;97572.25;;;-0.09;100.00
49311;BME280;35177;45.900;5.946;2023-02-22T01:43:28;97568.13;;;0.05;100.00
49311;BME280;35177;45.900;5.946;2023-02-22T01:48:36;97562.25;;;-0.21;100.00
49311;BME280;35177;45.900;5.946;2023-02-22T01:51:19;97561.72;;;-0.52;100.00
49311;BME280;35177;45.900;5.946;2023-02-22T01:57:17;97569.56;;;-0.38;100.00
49311;BME280;35177;45.900;5.946;2023-02-22T01:59:45;97571.66;;;-0.45;100.00
49311;BME280;35177;45.900;5.946;2023-02-22T02:02:13;97565.63;;;-0.30;100.00
49311;BME280;35177;45.900;5.946;2023-02-22T02:04:39;97560.16;;;-0.47;100.00
49311;BME280;35177;45.900;5.946;2023-02-22T02:07:09;97561.59;;;-0.28;100.00
49311;BME280;35177;45.900;5.946;2023-02-22T02:09:46;97558.31;;;-0.42;100.00
49311;BME280;35177;45.900;5.946;2023-02-22T02:12:14;97563.97;;;-0.31;100.00
49311;BME280;35177;45.900;5.946;2023-02-22T02:14:41;97555.59;;;-0.42;100.00
49311;BME280;35177;45.900;5.946;2023-02-22T02:17:11;97548.59;;;-0.38;100.00
49311;BME280;35177;45.900;5.946;2023-02-22T02:19:45;97553.09;;;-0.60;100.00
49311;BME280;35177;45.900;5.946;2023-02-22T02:22:27;97546.78;;;-0.78;100.00
49311;BME280;35177;45.900;5.946;2023-02-22T02:33:47;97543.09;;;-0.84;100.00
49311;BME280;35177;45.900;5.946;2023-02-22T02:36:33;97534.41;;;-0.98;100.00
49311;BME280;35177;45.900;5.946;2023-02-22T02:41:49;97538.63;;;-0.90;100.00
49311;BME280;35177;45.900;5.946;2023-02-22T02:44:26;97540.53;;;-0.90;100.00
49311;BME280;35177;45.900;5.946;2023-02-22T02:47:02;97543.94;;;-0.54;100.00
49311;BME280;35177;45.900;5.946;2023-02-22T02:49:57;97540.66;;;-0.56;100.00
49311;BME280;35177;45.900;5.946;2023-02-22T02:52:26;97539.66;;;-0.50;100.00
49311;BME280;35177;45.900;5.946;2023-02-22T02:54:54;97545.03;;;-0.55;100.00
49311;BME280;35177;45.900;5.946;2023-02-22T02:57:20;97542.00;;;-0.71;100.00
49311;BME280;35177;45.900;5.946;2023-02-22T02:59:46;97544.94;;;-0.89;100.00
49311;BME280;35177;45.900;5.946;2023-02-22T03:11:05;97553.44;;;-0.57;100.00
49311;BME280;35177;45.900;5.946;2023-02-22T03:16:33;97554.91;;;-0.66;100.00
49311;BME280;35177;45.900;5.946;2023-02-22T03:24:29;97546.38;;;-0.99;100.00
49311;BME280;35177;45.900;5.946;2023-02-22T03:27:08;97542.75;;;-1.16;100.00
49311;BME280;35177;45.900;5.946;2023-02-22T03:29:38;97544.41;;;-1.03;100.00
49311;BME280;35177;45.900;5.946;2023-02-22T03:32:13;97539.78;;;-1.15;100.00
49311;BME280;35177;45.900;5.946;2023-02-22T03:34:47;97543.09;;;-1.01;100.00
49311;BME280;35177;45.900;5.946;2023-02-22T03:37:22;97534.00;;;-1.18;100.00
49311;BME280;35177;45.900;5.946;2023-02-22T03:39:52;97545.69;;;-1.06;100.00
49311;BME280;35177;45.900;5.946;2023-02-22T03:42:27;97546.38;;;-0.99;100.00
49311;BME280;35177;45.900;5.946;2023-02-22T03:44:57;97547.28;;;-0.81;100.00
49311;BME280;35177;45.900;5.946;2023-02-22T03:47:47;97540.06;;;-0.87;100.00
49311;BME280;35177;45.900;5.946;2023-02-22T03:50:22;97544.38;;;-0.74;100.00
49311;BME280;35177;45.900;5.946;2023-02-22T03:52:51;97539.09;;;-0.81;100.00
49311;BME280;35177;45.900;5.946;2023-02-22T03:55:17;97544.47;;;-0.69;100.00
49311;BME280;35177;45.900;5.946;2023-02-22T03:57:53;97538.59;;;-0.78;100.00
49311;BME280;35177;45.900;5.946;2023-02-22T04:00:23;97540.94;;;-0.70;100.00
49311;BME280;35177;45.900;5.946;2023-02-22T04:02:49;97534.00;;;-0.77;100.00
49311;BME280;35177;45.900;5.946;2023-02-22T04:05:15;97531.59;;;-0.74;100.00
49311;BME280;35177;45.900;5.946;2023-02-22T04:07:41;97528.03;;;-0.74;100.00
49311;BME280;35177;45.900;5.946;2023-02-22T04:10:08;97535.50;;;-0.70;100.00
49311;BME280;35177;45.900;5.946;2023-02-22T04:12:35;97537.09;;;-0.86;100.00
49311;BME280;35177;45.900;5.946;2023-02-22T04:15:01;97542.94;;;-1.06;100.00
49311;BME280;35177;45.900;5.946;2023-02-22T04:17:27;97536.38;;;-1.22;100.00
49311;BME280;35177;45.900;5.946;2023-02-22T04:19:52;97539.94;;;-1.21;100.00
49311;BME280;35177;45.900;5.946;2023-02-22T04:22:18;97534.00;;;-1.18;100.00
49311;BME280;35177;45.900;5.946;2023-02-22T04:24:43;97538.28;;;-0.93;100.00
49311;BME280;35177;45.900;5.946;2023-02-22T04:27:10;97543.09;;;-1.01;100.00
49311;BME280;35177;45.900;5.946;2023-02-22T04:29:35;97533.50;;;-1.03;100.00
49311;BME280;35177;45.900;5.946;2023-02-22T04:32:01;97543.56;;;-1.04;100.00
49311;BME280;35177;45.900;5.946;2023-02-22T04:34:26;97539.50;;;-1.30;100.00
49311;BME280;35177;45.900;5.946;2023-02-22T04:36:52;97547.59;;;-1.06;100.00
49311;BME280;35177;45.900;5.946;2023-02-22T04:39:17;97539.16;;;-1.05;100.00
49311;BME280;35177;45.900;5.946;2023-02-22T04:41:43;97542.03;;;-1.11;100.00
49311;BME280;35177;45.900;5.946;2023-02-22T04:44:08;97541.97;;;-1.28;100.00
49311;BME280;35177;45.900;5.946;2023-02-22T04:46:34;97543.56;;;-1.16;100.00
49311;BME280;35177;45.900;5.946;2023-02-22T04:48:59;97550.06;;;-1.05;100.00
49311;BME280;35177;45.900;5.946;2023-02-22T04:51:25;97535.31;;;-1.21;100.00
49311;BME280;35177;45.900;5.946;2023-02-22T04:53:50;97538.88;;;-1.20;100.00
49311;BME280;35177;45.900;5.946;2023-02-22T04:56:17;97536.78;;;-1.42;100.00
49311;BME280;35177;45.900;5.946;2023-02-22T04:58:43;97539.16;;;-1.46;100.00
49311;BME280;35177;45.900;5.946;2023-02-22T05:01:09;97535.53;;;-1.63;100.00
49311;BME280;35177;45.900;5.946;2023-02-22T05:03:37;97544.13;;;-1.42;100.00
49311;BME280;35177;45.900;5.946;2023-02-22T05:06:03;97550.84;;;-1.33;100.00
49311;BME280;35177;45.900;5.946;2023-02-22T05:08:29;97545.75;;;-1.30;100.00
49311;BME280;35177;45.900;5.946;2023-02-22T05:10:54;97548.34;;;-1.23;100.00
49311;BME280;35177;45.900;5.946;2023-02-22T05:13:20;97548.22;;;-1.16;100.00
49311;BME280;35177;45.900;5.946;2023-02-22T05:15:46;97544.94;;;-1.30;100.00
49311;BME280;35177;45.900;5.946;2023-02-22T05:18:12;97552.84;;;-1.17;100.00
49311;BME280;35177;45.900;5.946;2023-02-22T05:20:38;97540.91;;;-0.99;100.00
49311;BME280;35177;45.900;5.946;2023-02-22T05:23:04;97555.13;;;-0.68;100.00
49311;BME280;35177;45.900;5.946;2023-02-22T05:25:30;97551.59;;;-0.97;100.00
49311;BME280;35177;45.900;5.946;2023-02-22T05:28:06;97547.75;;;-1.25;100.00
49311;BME280;35177;45.900;5.946;2023-02-22T05:30:34;97558.22;;;-0.93;100.00
49311;BME280;35177;45.900;5.946;2023-02-22T05:33:00;97547.75;;;-1.13;100.00
49311;BME280;35177;45.900;5.946;2023-02-22T05:35:27;97549.38;;;-1.12;100.00
49311;BME280;35177;45.900;5.946;2023-02-22T05:37:54;97548.41;;;-1.06;100.00
49311;BME280;35177;45.900;5.946;2023-02-22T05:40:22;97546.53;;;-1.17;100.00
49311;BME280;35177;45.900;5.946;2023-02-22T05:42:48;97547.31;;;-1.34;100.00
49311;BME280;35177;45.900;5.946;2023-02-22T05:45:15;97554.41;;;-1.56;100.00
49311;BME280;35177;45.900;5.946;2023-02-22T05:47:41;97553.94;;;-1.41;100.00
49311;BME280;35177;45.900;5.946;2023-02-22T05:50:07;97553.66;;;-1.28;100.00
49311;BME280;35177;45.900;5.946;2023-02-22T05:52:33;97552.16;;;-1.36;100.00
49311;BME280;35177;45.900;5.946;2023-02-22T05:54:58;97545.09;;;-1.49;100.00
49311;BME280;35177;45.900;5.946;2023-02-22T05:57:24;97549.44;;;-1.36;100.00
49311;BME280;35177;45.900;5.946;2023-02-22T05:59:49;97559.66;;;-1.55;100.00
49311;BME280;35177;45.900;5.946;2023-02-22T06:02:15;97565.19;;;-1.50;100.00
49311;BME280;35177;45.900;5.946;2023-02-22T06:04:44;97563.66;;;-1.57;100.00
49311;BME280;35177;45.900;5.946;2023-02-22T06:07:10;97561.06;;;-1.52;100.00
49311;BME280;35177;45.900;5.946;2023-02-22T06:09:36;97563.53;;;-1.39;100.00
49311;BME280;35177;45.900;5.946;2023-02-22T06:12:01;97555.88;;;-1.66;100.00
49311;BME280;35177;45.900;5.946;2023-02-22T06:14:28;97556.09;;;-1.55;100.00
49311;BME280;35177;45.900;5.946;2023-02-22T06:16:54;97554.06;;;-1.36;100.00
49311;BME280;35177;45.900;5.946;2023-02-22T06:19:20;97557.84;;;-1.37;100.00
49311;BME280;35177;45.900;5.946;2023-02-22T06:21:53;97556.28;;;-1.33;100.00
49311;BME280;35177;45.900;5.946;2023-02-22T06:24:20;97546.81;;;-1.31;100.00
49311;BME280;35177;45.900;5.946;2023-02-22T06:26:45;97552.88;;;-1.00;100.00
49311;BME280;35177;45.900;5.946;2023-02-22T06:29:12;97556.69;;;-1.01;100.00
49311;BME280;35177;45.900;5.946;2023-02-22T06:31:37;97565.66;;;-0.88;100.00
49311;BME280;35177;45.900;5.946;2023-02-22T06:34:03;97562.00;;;-0.94;100.00
49311;BME280;35177;45.900;5.946;2023-02-22T06:36:29;97564.00;;;-0.89;100.00
49311;BME280;35177;45.900;5.946;2023-02-22T06:38:56;97561.88;;;-0.87;100.00
49311;BME280;35177;45.900;5.946;2023-02-22T06:41:21;97568.22;;;-0.82;100.00
49311;BME280;35177;45.900;5.946;2023-02-22T06:43:48;97572.34;;;-0.79;100.00
49311;BME280;35177;45.900;5.946;2023-02-22T06:46:14;97566.63;;;-0.66;100.00
49311;BME280;35177;45.900;5.946;2023-02-22T06:48:39;97565.13;;;-0.73;100.00
49311;BME280;35177;45.900;5.946;2023-02-22T06:51:07;97572.50;;;-0.57;100.00
49311;BME280;35177;45.900;5.946;2023-02-22T06:53:33;97578.94;;;-0.34;100.00
49311;BME280;35177;45.900;5.946;2023-02-22T06:55:59;97576.78;;;-0.15;100.00
49311;BME280;35177;45.900;5.946;2023-02-22T06:58:24;97572.94;;;-0.02;100.00
49311;BME280;35177;45.900;5.946;2023-02-22T07:00:51;97578.06;;;0.28;100.00
49311;BME280;35177;45.900;5.946;2023-02-22T07:03:17;97572.81;;;0.44;100.00
49311;BME280;35177;45.900;5.946;2023-02-22T07:05:42;97575.53;;;0.44;100.00
49311;BME280;35177;45.900;5.946;2023-02-22T07:08:09;97566.25;;;0.62;100.00
49311;BME280;35177;45.900;5.946;2023-02-22T07:10:36;97578.47;;;0.99;100.00
49311;BME280;35177;45.900;5.946;2023-02-22T07:13:04;97578.66;;;1.14;100.00
49311;BME280;35177;45.900;5.946;2023-02-22T07:15:30;97580.13;;;1.00;100.00
49311;BME280;35177;45.900;5.946;2023-02-22T07:17:58;97584.00;;;1.04;100.00
49311;BME280;35177;45.900;5.946;2023-02-22T07:20:26;97585.78;;;1.15;100.00
49311;BME280;35177;45.900;5.946;2023-02-22T07:22:52;97590.50;;;1.20;100.00
49311;BME280;35177;45.900;5.946;2023-02-22T07:25:18;97578.59;;;1.31;100.00
49311;BME280;35177;45.900;5.946;2023-02-22T07:27:45;97593.16;;;1.37;100.00
49311;BME280;35177;45.900;5.946;2023-02-22T07:32:49;97582.75;;;1.39;100.00
49311;BME280;35177;45.900;5.946;2023-02-22T07:35:22;97586.19;;;1.51;100.00
49311;BME280;35177;45.900;5.946;2023-02-22T07:37:48;97591.19;;;1.59;100.00
49311;BME280;35177;45.900;5.946;2023-02-22T07:40:14;97585.19;;;1.57;100.00
49311;BME280;35177;45.900;5.946;2023-02-22T07:43:01;97588.06;;;1.73;100.00
49311;BME280;35177;45.900;5.946;2023-02-22T07:45:30;97579.13;;;1.83;100.00
49311;BME280;35177;45.900;5.946;2023-02-22T07:47:56;97585.47;;;1.88;100.00
49311;BME280;35177;45.900;5.946;2023-02-22T07:50:23;97583.84;;;1.92;100.00
49311;BME280;35177;45.900;5.946;2023-02-22T07:52:52;97589.97;;;1.72;100.00
49311;BME280;35177;45.900;5.946;2023-02-22T07:55:20;97586.50;;;1.82;100.00
49311;BME280;35177;45.900;5.946;2023-02-22T07:57:47;97599.13;;;1.83;100.00
49311;BME280;35177;45.900;5.946;2023-02-22T08:00:20;97591.81;;;1.94;100.00
49311;BME280;35177;45.900;5.946;2023-02-22T08:02:48;97590.31;;;1.81;100.00
49311;BME280;35177;45.900;5.946;2023-02-22T08:05:14;97599.19;;;1.93;100.00
49311;BME280;35177;45.900;5.946;2023-02-22T08:07:39;97595.38;;;1.95;100.00
49311;BME280;35177;45.900;5.946;2023-02-22T08:10:06;97594.53;;;2.21;100.00
49311;BME280;35177;45.900;5.946;2023-02-22T08:12:33;97585.25;;;2.28;100.00
49311;BME280;35177;45.900;5.946;2023-02-22T08:14:59;97592.16;;;2.35;100.00
49311;BME280;35177;45.900;5.946;2023-02-22T08:17:24;97587.03;;;2.49;100.00
49311;BME280;35177;45.900;5.946;2023-02-22T08:19:50;97583.75;;;2.47;100.00
49311;BME280;35177;45.900;5.946;2023-02-22T08:22:15;97590.28;;;2.41;100.00
49311;BME280;35177;45.900;5.946;2023-02-22T08:24:41;97598.75;;;2.39;100.00
49311;BME280;35177;45.900;5.946;2023-02-22T08:27:06;97600.09;;;2.37;100.00
49311;BME280;35177;45.900;5.946;2023-02-22T08:29:32;97602.97;;;2.52;100.00
49311;BME280;35177;45.900;5.946;2023-02-22T08:32:01;97599.19;;;2.64;100.00
49311;BME280;35177;45.900;5.946;2023-02-22T08:34:26;97598.50;;;2.84;100.00
49311;BME280;35177;45.900;5.946;2023-02-22T08:36:52;97590.66;;;3.03;100.00
49311;BME280;35177;45.900;5.946;2023-02-22T08:39:18;97583.00;;;3.05;100.00
49311;BME280;35177;45.900;5.946;2023-02-22T08:41:44;97590.47;;;3.20;100.00
49311;BME280;35177;45.900;5.946;2023-02-22T08:44:09;97588.84;;;3.29;100.00
49311;BME280;35177;45.900;5.946;2023-02-22T08:46:35;97589.47;;;3.47;100.00
49311;BME280;35177;45.900;5.946;2023-02-22T08:49:00;97584.28;;;3.61;100.00
49311;BME280;35177;45.900;5.946;2023-02-22T08:51:27;97584.59;;;3.75;100.00
49311;BME280;35177;45.900;5.946;2023-02-22T08:53:52;97590.94;;;3.85;100.00
49311;BME280;35177;45.900;5.946;2023-02-22T08:56:19;97590.97;;;4.06;100.00
49311;BME280;35177;45.900;5.946;2023-02-22T08:58:44;97586.31;;;4.17;100.00
49311;BME280;35177;45.900;5.946;2023-02-22T09:01:10;97585.47;;;4.32;100.00
49311;BME280;35177;45.900;5.946;2023-02-22T09:03:36;97583.84;;;4.41;100.00
49311;BME280;35177;45.900;5.946;2023-02-22T09:06:03;97582.47;;;4.44;100.00
49311;BME280;35177;45.900;5.946;2023-02-22T09:08:29;97578.03;;;4.53;100.00
49311;BME280;35177;45.900;5.946;2023-02-22T09:10:54;97589.03;;;4.63;100.00
49311;BME280;35177;45.900;5.946;2023-02-22T09:13:20;97579.13;;;4.68;100.00
49311;BME280;35177;45.900;5.946;2023-02-22T09:15:45;97582.13;;;4.76;100.00
49311;BME280;35177;45.900;5.946;2023-02-22T09:18:12;97585.69;;;4.72;100.00
49311;BME280;35177;45.900;5.946;2023-02-22T09:20:39;97588.19;;;4.78;100.00
49311;BME280;35177;45.900;5.946;2023-02-22T09:23:06;97586.25;;;4.79;100.00
49311;BME280;35177;45.900;5.946;2023-02-22T09:25:34;97593.16;;;4.66;100.00
49311;BME280;35177;45.900;5.946;2023-02-22T09:28:00;97590.66;;;4.59;100.00
49311;BME280;35177;45.900;5.946;2023-02-22T09:30:29;97593.09;;;4.81;100.00
49311;BME280;35177;45.900;5.946;2023-02-22T09:32:58;97582.41;;;4.75;100.00
49311;BME280;35177;45.900;5.946;2023-02-22T09:35:24;97587.66;;;4.66;100.00
49311;BME280;35177;45.900;5.946;2023-02-22T09:37:55;97585.44;;;4.63;100.00
49311;BME280;35177;45.900;5.946;2023-02-22T09:40:22;97586.50;;;4.82;100.00
49311;BME280;35177;45.900;5.946;2023-02-22T09:45:50;97578.25;;;4.88;100.00
49311;BME280;35177;45.900;5.946;2023-02-22T09:48:18;97583.22;;;4.86;100.00
49311;BME280;35177;45.900;5.946;2023-02-22T09:50:45;97576.84;;;5.01;100.00
49311;BME280;35177;45.900;5.946;2023-02-22T09:53:30;97574.34;;;5.09;100.00
49311;BME280;35177;45.900;5.946;2023-02-22T09:56:11;97572.91;;;5.22;100.00
49311;BME280;35177;45.900;5.946;2023-02-22T09:58:42;97572.53;;;5.50;100.00
49311;BME280;35177;45.900;5.946;2023-02-22T10:06:38;97570.47;;;5.71;100.00
49311;BME280;35177;45.900;5.946;2023-02-22T10:09:08;97562.16;;;5.81;100.00
49311;BME280;35177;45.900;5.946;2023-02-22T10:17:43;97558.97;;;6.08;100.00
49311;BME280;35177;45.900;5.946;2023-02-22T10:25:26;97552.63;;;6.42;100.00
49311;BME280;35177;45.900;5.946;2023-02-22T10:30:54;97549.88;;;6.42;100.00
49311;BME280;35177;45.900;5.946;2023-02-22T10:34:00;97543.16;;;6.54;100.00
49311;BME280;35177;45.900;5.946;2023-02-22T10:36:27;97546.63;;;6.65;100.00
49311;BME280;35177;45.900;5.946;2023-02-22T10:39:06;97552.06;;;6.75;100.00
49311;BME280;35177;45.900;5.946;2023-02-22T10:41:43;97545.66;;;6.80;100.00
49311;BME280;35177;45.900;5.946;2023-02-22T10:44:09;97549.09;;;6.90;100.00
49311;BME280;35177;45.900;5.946;2023-02-22T10:46:35;97539.38;;;6.98;100.00
49311;BME280;35177;45.900;5.946;2023-02-22T10:49:04;97537.91;;;7.06;100.00
49311;BME280;35177;45.900;5.946;2023-02-22T10:51:31;97544.66;;;7.19;100.00
49311;BME280;35177;45.900;5.946;2023-02-22T10:56:49;97542.81;;;7.33;100.00
49311;BME280;35177;45.900;5.946;2023-02-22T11:01:53;97536.91;;;7.21;100.00
49311;BME280;35177;45.900;5.946;2023-02-22T11:04:20;97535.03;;;7.16;100.00
49311;BME280;35177;45.900;5.946;2023-02-22T11:06:48;97530.84;;;7.19;100.00
49311;BME280;35177;45.900;5.946;2023-02-22T11:09:17;97530.81;;;7.24;100.00
49311;BME280;35177;45.900;5.946;2023-02-22T11:11:45;97527.75;;;7.26;100.00
49311;BME280;35177;45.900;5.946;2023-02-22T11:14:23;97526.69;;;7.21;100.00
49311;BME280;35177;45.900;5.946;2023-02-22T11:16:53;97521.69;;;7.23;100.00
49311;BME280;35177;45.900;5.946;2023-02-22T11:19:26;97529.00;;;7.33;100.00
49311;BME280;35177;45.900;5.946;2023-02-22T11:21:55;97519.84;;;7.38;100.00
49311;BME280;35177;45.900;5.946;2023-02-22T11:24:22;97524.69;;;7.27;100.00
49311;BME280;35177;45.900;5.946;2023-02-22T11:26:57;97525.75;;;7.07;100.00
49311;BME280;35177;45.900;5.946;2023-02-22T11:31:52;97526.09;;;7.00;100.00
49311;BME280;35177;45.900;5.946;2023-02-22T11:36:51;97518.84;;;7.10;100.00
49311;BME280;35177;45.900;5.946;2023-02-22T11:41:48;97519.66;;;7.53;100.00
49311;BME280;35177;45.900;5.946;2023-02-22T11:44:24;97515.81;;;7.49;100.00
49311;BME280;35177;45.900;5.946;2023-02-22T11:46:52;97511.88;;;7.36;100.00
49311;BME280;35177;45.900;5.946;2023-02-22T11:49:23;97507.09;;;7.42;100.00
49311;BME280;35177;45.900;5.946;2023-02-22T12:02:58;97485.81;;;7.62;100.00
49311;BME280;35177;45.900;5.946;2023-02-22T12:09:02;97475.66;;;7.76;100.00
49311;BME280;35177;45.900;5.946;2023-02-22T12:19:49;97481.19;;;7.76;100.00
49311;BME280;35177;45.900;5.946;2023-02-22T12:22:29;97470.63;;;7.97;100.00
49311;BME280;35177;45.900;5.946;2023-02-22T12:25:12;97469.59;;;7.93;100.00
49311;BME280;35177;45.900;5.946;2023-02-22T12:27:44;97467.22;;;8.19;100.00
49311;BME280;35177;45.900;5.946;2023-02-22T12:30:21;97459.75;;;8.20;100.00
49311;BME280;35177;45.900;5.946;2023-02-22T12:32:57;97455.38;;;8.33;100.00
49311;BME280;35177;45.900;5.946;2023-02-22T12:35:29;97446.56;;;8.31;100.00
49311;BME280;35177;45.900;5.946;2023-02-22T12:40:34;97451.34;;;8.58;100.00
49311;BME280;35177;45.900;5.946;2023-02-22T12:43:11;97450.13;;;8.64;100.00
49311;BME280;35177;45.900;5.946;2023-02-22T12:45:59;97445.47;;;8.46;100.00
49311;BME280;35177;45.900;5.946;2023-02-22T12:48:39;97448.75;;;8.48;100.00
49311;BME280;35177;45.900;5.946;2023-02-22T12:54:06;97431.28;;;8.66;100.00
49311;BME280;35177;45.900;5.946;2023-02-22T12:56:42;97436.81;;;8.66;100.00
49311;BME280;35177;45.900;5.946;2023-02-22T12:59:21;97434.34;;;8.65;100.00
49311;BME280;35177;45.900;5.946;2023-02-22T13:02:00;97428.31;;;8.63;100.00
49311;BME280;35177;45.900;5.946;2023-02-22T13:04:28;97431.47;;;8.70;100.00
49311;BME280;35177;45.900;5.946;2023-02-22T13:14:50;97422.75;;;9.05;100.00
49311;BME280;35177;45.900;5.946;2023-02-22T13:23:05;97417.28;;;9.13;100.00
49311;BME280;35177;45.900;5.946;2023-02-22T13:25:54;97420.38;;;9.12;100.00
49311;BME280;35177;45.900;5.946;2023-02-22T13:28:38;97417.78;;;9.15;100.00
49311;BME280;35177;45.900;5.946;2023-02-22T13:34:11;97421.03;;;9.31;100.00
49311;BME280;35177;45.900;5.946;2023-02-22T13:36:58;97421.47;;;9.25;100.00
49311;BME280;35177;45.900;5.946;2023-02-22T13:42:19;97418.31;;;9.18;100.00
49311;BME280;35177;45.900;5.946;2023-02-22T13:52:47;97412.38;;;9.10;100.00
49311;BME280;35177;45.900;5.946;2023-02-22T13:55:22;97417.50;;;9.17;100.00
49311;BME280;35177;45.900;5.946;2023-02-22T13:58:05;97406.53;;;9.12;100.00
49311;BME280;35177;45.900;5.946;2023-02-22T14:10:56;97397.06;;;9.27;100.00
49311;BME280;35177;45.900;5.946;2023-02-22T14:13:31;97407.63;;;9.25;100.00
49311;BME280;35177;45.900;5.946;2023-02-22T14:19:15;97400.13;;;9.25;100.00
49311;BME280;35177;45.900;5.946;2023-02-22T14:21:18;97388.25;;;9.25;100.00
49311;BME280;35177;45.900;5.946;2023-02-22T14:23:49;97400.13;;;9.25;100.00
49311;BME280;35177;45.900;5.946;2023-02-22T14:26:31;97400.63;;;9.27;100.00
49311;BME280;35177;45.900;5.946;2023-02-22T14:34:17;97393.84;;;9.33;100.00
49311;BME280;35177;45.900;5.946;2023-02-22T14:47:23;97389.50;;;9.41;100.00
49311;BME280;35177;45.900;5.946;2023-02-22T14:49:56;97396.69;;;9.42;100.00
49311;BME280;35177;45.900;5.946;2023-02-22T14:52:27;97400.72;;;9.36;100.00
49311;BME280;35177;45.900;5.946;2023-02-22T14:55:03;97391.81;;;9.25;100.00
49311;BME280;35177;45.900;5.946;2023-02-22T15:00:46;97394.50;;;9.30;100.00
49311;BME280;35177;45.900;5.946;2023-02-22T15:05:48;97397.88;;;9.27;100.00
49311;BME280;35177;45.900;5.946;2023-02-22T15:08:17;97399.00;;;9.26;100.00
49311;BME280;35177;45.900;5.946;2023-02-22T15:10:51;97402.88;;;9.25;100.00
49311;BME280;35177;45.900;5.946;2023-02-22T15:15:56;97394.78;;;9.29;100.00
49311;BME280;35177;45.900;5.946;2023-02-22T15:18:42;97402.88;;;9.25;100.00
49311;BME280;35177;45.900;5.946;2023-02-22T15:21:14;97404.06;;;9.10;100.00
49311;BME280;35177;45.900;5.946;2023-02-22T15:23:57;97398.72;;;9.14;100.00
49311;BME280;35177;45.900;5.946;2023-02-22T15:26:41;97398.34;;;8.93;100.00
49311;BME280;35177;45.900;5.946;2023-02-22T15:29:14;97392.53;;;8.80;100.00
49311;BME280;35177;45.900;5.946;2023-02-22T15:31:40;97388.00;;;8.84;100.00
49311;BME280;35177;45.900;5.946;2023-02-22T15:36:43;97386.75;;;8.91;100.00
49311;BME280;35177;45.900;5.946;2023-02-22T15:39:21;97388.09;;;8.93;100.00
49311;BME280;35177;45.900;5.946;2023-02-22T15:42:20;97385.84;;;8.95;100.00
49311;BME280;35177;45.900;5.946;2023-02-22T15:44:49;97387.16;;;8.98;100.00
49311;BME280;35177;45.900;5.946;2023-02-22T15:47:18;97394.88;;;9.01;100.00
49311;BME280;35177;45.900;5.946;2023-02-22T15:49:44;97392.09;;;9.01;100.00
49311;BME280;35177;45.900;5.946;2023-02-22T15:52:21;97388.50;;;9.00;100.00
49311;BME280;35177;45.900;5.946;2023-02-22T15:54:50;97395.78;;;8.96;100.00